Time;durP1;ratioP1;P1;durP2;ratioP2;P2;SDS_P1;SDS_P2;PMS_P1;PMS_P2;Temp;Humidity;BMP_temperature;BMP_pressure;BME280_temperature;BME280_humidity;BME280_pressure;Samples;Min_cycle;Max_cycle;Signal;HPM_P1;HPM_P2
2022/08/10 00:01:06;;;;;;;2.80;1.90;;;;;;;17.83;70.96;100046.05;108645;1280;138532;-69
2022/08/10 00:03:33;;;;;;;3.00;2.10;;;;;;;17.79;70.93;100045.69;108783;1279;22473;-69
2022/08/10 00:06:00;;;;;;;4.70;2.10;;;;;;;17.77;70.88;100040.59;108687;1279;138830;-69
2022/08/10 00:08:27;;;;;;;3.60;2.00;;;;;;;17.75;71.04;100036.25;108763;1279;22544;-69
2022/08/10 00:10:55;;;;;;;3.40;2.00;;;;;;;17.74;71.01;100035.66;108777;1279;22616;-69
2022/08/10 00:13:22;;;;;;;3.90;1.90;;;;;;;17.74;70.91;100042.23;108673;1279;138229;-70
2022/08/10 00:15:49;;;;;;;5.90;2.30;;;;;;;17.73;71.05;100045.95;108834;1279;22455;-68
2022/08/10 00:18:24;;;;;;;2.30;1.80;;;;;;;17.74;71.50;100043.95;108685;1279;138632;-67
2022/08/10 00:21:01;;;;;;;5.10;2.20;;;;;;;17.76;72.23;100043.17;108860;1279;22580;-68
2022/08/10 00:23:28;;;;;;;3.00;2.10;;;;;;;17.77;72.81;100044.39;108657;1279;139799;-64
2022/08/10 00:25:55;;;;;;;5.20;2.10;;;;;;;17.75;73.34;100041.44;108852;1279;22467;-67
2022/08/10 00:28:21;;;;;;;4.20;1.90;;;;;;;17.75;73.79;100037.82;108869;1279;22582;-67
2022/08/10 00:30:48;;;;;;;7.00;2.20;;;;;;;17.74;74.10;100038.60;108737;1279;138701;-67
2022/08/10 00:33:15;;;;;;;5.40;1.90;;;;;;;17.72;74.35;100036.75;108761;1279;22480;-70
2022/08/10 00:35:42;;;;;;;3.80;1.90;;;;;;;17.70;74.63;100034.83;108686;1279;139731;-69
2022/08/10 00:38:09;;;;;;;3.40;1.90;;;;;;;17.68;74.68;100033.97;108936;1279;23070;-69
2022/08/10 00:40:36;;;;;;;5.00;2.20;;;;;;;17.66;74.74;100031.34;109010;1277;22438;-69
2022/08/10 00:43:05;;;;;;;2.60;1.90;;;;;;;17.63;74.86;100032.08;108708;1280;138291;-69
2022/08/10 00:45:32;;;;;;;2.60;2.20;;;;;;;17.61;75.06;100037.38;108948;1277;23034;-69
2022/08/10 00:47:59;;;;;;;6.10;2.20;;;;;;;17.58;75.19;100040.34;108846;1277;139029;-69
2022/08/10 00:50:26;;;;;;;3.40;1.80;;;;;;;17.54;75.61;100033.09;108949;1277;22466;-68
2022/08/10 00:52:52;;;;;;;3.20;2.00;;;;;;;17.51;75.70;100032.63;108808;1277;22527;-67
2022/08/10 00:55:19;;;;;;;7.30;1.90;;;;;;;17.48;76.05;100031.33;108876;1277;138746;-68
2022/08/10 00:57:46;;;;;;;2.30;2.00;;;;;;;17.44;76.20;100030.13;109022;1276;22584;-67
2022/08/10 01:00:22;;;;;;;2.60;2.30;;;;;;;17.41;76.45;100020.84;108748;1280;139503;-68
2022/08/10 01:02:49;;;;;;;2.60;1.80;;;;;;;17.37;76.38;100017.40;109014;1277;23782;-67
2022/08/10 01:05:18;;;;;;;4.40;2.10;;;;;;;17.34;76.43;100016.55;109002;1277;22460;-68
2022/08/10 01:08:04;;;;;;;5.60;2.00;;;;;;;17.30;76.66;100018.35;108830;1278;138172;-67
2022/08/10 01:10:42;;;;;;;2.80;1.80;;;;;;;17.25;76.91;100022.80;108845;1279;22532;-68
2022/08/10 01:13:15;;;;;;;5.60;2.20;;;;;;;17.19;77.29;100023.02;108737;1280;138609;-68
2022/08/10 01:16:01;;;;;;;2.90;1.80;;;;;;;17.16;77.56;100026.68;108965;1277;23054;-68
2022/08/10 01:18:53;;;;;;;1.90;1.80;;;;;;;17.13;77.96;100022.15;108826;1277;138368;-68
2022/08/10 01:21:59;;;;;;;5.90;1.90;;;;;;;17.11;78.15;100024.80;109057;1277;22468;-68
2022/08/10 01:25:00;;;;;;;2.10;1.90;;;;;;;17.07;78.34;100025.77;108772;1280;139086;-69
2022/08/10 01:27:44;;;;;;;5.40;2.30;;;;;;;17.05;78.47;100030.30;108990;1277;22457;-68
2022/08/10 01:30:12;;;;;;;2.70;2.10;;;;;;;17.05;78.65;100026.34;108895;1277;138576;-68
2022/08/10 01:32:48;;;;;;;5.00;2.20;;;;;;;17.05;78.68;100030.25;108897;1277;22420;-68
2022/08/10 01:35:38;;;;;;;3.50;1.80;;;;;;;17.02;78.74;100030.23;108928;1279;22536;-68
2022/08/10 01:38:13;;;;;;;3.50;2.30;;;;;;;16.99;78.91;100023.75;108239;1285;22593;-69
2022/08/10 01:40:47;;;;;;;3.00;2.40;;;;;;;16.96;79.06;100020.25;108013;1286;22635;-69
2022/08/10 01:43:15;;;;;;;3.40;2.00;;;;;;;16.93;79.05;100023.58;108009;1286;138143;-69
2022/08/10 01:45:43;;;;;;;3.50;2.10;;;;;;;16.91;79.25;100023.75;107986;1287;22458;-69
2022/08/10 01:48:32;;;;;;;5.10;2.10;;;;;;;16.90;79.53;100019.08;107876;1286;138895;-69
2022/08/10 01:51:00;;;;;;;7.80;2.20;;;;;;;16.87;79.47;100019.23;108134;1287;24662;-69
2022/08/10 01:53:33;;;;;;;2.60;2.40;;;;;;;16.84;79.71;100025.25;108004;1287;22472;-69
2022/08/10 01:56:09;;;;;;;7.30;2.50;;;;;;;16.82;79.83;100027.30;108278;1286;23235;-69
2022/08/10 01:58:36;;;;;;;9.20;2.20;;;;;;;16.80;80.04;100029.19;108187;1286;23305;-69
2022/08/10 02:01:02;;;;;;;3.50;2.30;;;;;;;16.79;80.22;100035.24;107970;1286;138207;-69
2022/08/10 02:03:29;;;;;;;7.70;2.30;;;;;;;16.79;80.36;100038.11;108194;1286;22471;-69
2022/08/10 02:05:56;;;;;;;4.60;2.60;;;;;;;16.80;80.57;100033.04;108035;1286;138864;-70
2022/08/10 02:08:23;;;;;;;3.40;2.10;;;;;;;16.82;80.55;100021.86;108063;1286;22406;-70
2022/08/10 02:10:50;;;;;;;4.50;2.00;;;;;;;16.82;80.33;100019.66;108241;1286;23455;-70
2022/08/10 02:13:17;;;;;;;4.70;2.80;;;;;;;16.82;80.31;100020.92;107978;1285;138296;-70
2022/08/10 02:15:44;;;;;;;5.40;2.20;;;;;;;16.82;80.17;100023.99;108649;1279;22460;-69
2022/08/10 02:18:28;;;;;;;6.00;2.90;;;;;;;16.82;79.97;100019.98;108924;1277;138385;-69
2022/08/10 02:20:55;;;;;;;2.80;2.30;;;;;;;16.82;79.61;100015.63;108603;1280;22601;-70
2022/08/10 02:23:27;;;;;;;4.20;2.00;;;;;;;16.81;79.39;100007.88;109023;1277;23206;-70
2022/08/10 02:25:55;;;;;;;9.40;2.70;;;;;;;16.78;79.24;100009.55;109040;1277;22916;-68
2022/08/10 02:28:22;;;;;;;3.60;2.30;;;;;;;16.76;79.09;100015.28;108999;1277;22452;-69
2022/08/10 02:31:17;;;;;;;4.00;2.20;;;;;;;16.73;79.01;100019.06;108871;1277;138755;-68
2022/08/10 02:33:48;;;;;;;6.40;2.30;;;;;;;16.71;79.29;100016.66;108971;1277;22448;-68
2022/08/10 02:36:28;;;;;;;3.80;2.30;;;;;;;16.68;79.30;100009.15;108850;1277;138798;-68
2022/08/10 02:38:57;;;;;;;4.60;2.40;;;;;;;16.65;79.39;100002.71;109085;1277;22422;-68
2022/08/10 02:41:40;;;;;;;4.00;2.30;;;;;;;16.63;79.48;100007.67;109059;1277;22496;-68
2022/08/10 02:44:31;;;;;;;4.10;2.20;;;;;;;16.62;79.67;100019.88;109095;1277;22546;-68
2022/08/10 02:47:25;;;;;;;4.70;2.50;;;;;;;16.63;79.92;100028.96;108686;1280;22511;-69
2022/08/10 02:50:02;;;;;;;2.50;2.30;;;;;;;16.63;79.87;100030.45;106981;1278;138149;-67
2022/08/10 02:52:37;;;;;;;6.80;2.00;;;;;;;16.64;79.95;100029.40;104967;1277;24301;-69
2022/08/10 02:55:10;;;;;;;8.20;2.40;;;;;;;16.66;80.13;100021.41;104961;1278;140957;-69
2022/08/10 02:57:48;;;;;;;4.70;3.70;;;;;;;16.67;80.12;100017.56;108909;1277;22421;-69
2022/08/10 03:00:41;;;;;;;7.30;4.40;;;;;;;16.67;79.95;100015.52;108852;1277;140155;-70
2022/08/10 03:03:10;;;;;;;5.70;4.30;;;;;;;16.66;79.95;100017.13;108943;1277;22482;-69
2022/08/10 03:05:37;;;;;;;10.40;4.60;;;;;;;16.65;80.01;100021.98;108874;1277;138766;-70
2022/08/10 03:08:04;;;;;;;7.80;5.00;;;;;;;16.66;80.02;100023.85;108987;1277;22453;-69
2022/08/10 03:10:32;;;;;;;8.20;4.20;;;;;;;16.68;80.12;100030.05;108673;1280;22429;-69
2022/08/10 03:13:00;;;;;;;8.80;3.80;;;;;;;16.70;80.13;100030.37;108536;1280;139359;-69
2022/08/10 03:15:28;;;;;;;5.40;3.50;;;;;;;16.73;80.12;100033.09;108804;1279;22384;-68
2022/08/10 03:17:55;;;;;;;5.70;3.00;;;;;;;16.75;80.24;100032.13;108858;1277;142012;-69
2022/08/10 03:20:32;;;;;;;4.30;3.10;;;;;;;16.76;80.30;100030.96;108981;1280;22456;-70
2022/08/10 03:23:15;;;;;;;4.80;3.10;;;;;;;16.77;80.44;100024.80;108538;1280;22517;-68
2022/08/10 03:25:42;;;;;;;4.70;3.00;;;;;;;16.78;80.62;100020.44;108678;1277;138814;-68
2022/08/10 03:28:27;;;;;;;14.00;3.10;;;;;;;16.77;80.37;100026.07;108972;1280;23223;-69
2022/08/10 03:30:54;;;;;;;3.50;2.80;;;;;;;16.73;80.26;100026.70;108886;1277;138444;-69
2022/08/10 03:33:22;;;;;;;5.40;2.70;;;;;;;16.70;80.45;100030.48;109015;1277;22490;-69
2022/08/10 03:35:51;;;;;;;3.90;2.60;;;;;;;16.71;80.50;100038.29;108845;1280;138370;-69
2022/08/10 03:38:39;;;;;;;5.60;2.90;;;;;;;16.73;80.61;100042.90;108997;1277;22496;-69
2022/08/10 03:41:08;;;;;;;2.40;2.20;;;;;;;16.75;80.68;100043.97;108941;1277;22439;-69
2022/08/10 03:43:35;;;;;;;6.40;2.90;;;;;;;16.77;80.67;100041.31;108915;1277;139753;-69
2022/08/10 03:46:03;;;;;;;7.30;2.70;;;;;;;16.80;80.49;100039.54;109141;1277;22558;-68
2022/08/10 03:48:29;;;;;;;4.40;2.50;;;;;;;16.81;80.48;100035.39;108874;1277;139343;-67
2022/08/10 03:51:14;;;;;;;5.90;2.60;;;;;;;16.83;80.51;100036.10;108916;1277;22559;-67
2022/08/10 03:53:41;;;;;;;3.90;2.60;;;;;;;16.85;80.49;100039.13;108789;1280;141896;-67
2022/08/10 03:56:28;;;;;;;5.10;2.60;;;;;;;16.84;80.07;100046.27;109013;1277;23661;-67
2022/08/10 03:58:58;;;;;;;8.60;2.70;;;;;;;16.84;79.86;100048.92;108997;1280;22433;-68
2022/08/10 04:01:26;;;;;;;5.10;2.50;;;;;;;16.83;79.76;100045.52;108718;1277;138657;-68
2022/08/10 04:04:12;;;;;;;3.80;2.50;;;;;;;16.80;79.58;100041.73;109074;1277;22471;-68
2022/08/10 04:06:48;;;;;;;5.60;2.70;;;;;;;16.75;79.52;100032.35;109087;1277;139300;-67
2022/08/10 04:09:20;;;;;;;4.60;2.60;;;;;;;16.72;79.73;100022.48;108984;1278;23311;-67
2022/08/10 04:11:46;;;;;;;4.90;2.50;;;;;;;16.70;79.87;100015.52;109043;1277;140364;-67
2022/08/10 04:14:13;;;;;;;4.90;3.10;;;;;;;16.69;80.21;100009.30;109135;1277;23579;-67
2022/08/10 04:17:00;;;;;;;6.30;3.00;;;;;;;16.70;80.77;100006.44;108972;1277;22520;-67
2022/08/10 04:19:27;;;;;;;6.90;2.90;;;;;;;16.71;81.10;100006.76;109086;1277;138742;-66
2022/08/10 04:21:58;;;;;;;4.80;3.00;;;;;;;16.73;81.44;100010.37;108933;1277;22431;-68
2022/08/10 04:24:25;;;;;;;4.40;2.60;;;;;;;16.76;81.73;100023.20;109030;1277;138320;-68
2022/08/10 04:26:59;;;;;;;2.80;2.50;;;;;;;16.78;81.81;100029.02;109000;1277;22455;-68
2022/08/10 04:29:26;;;;;;;6.50;2.60;;;;;;;16.80;81.91;100037.99;109052;1277;23398;-68
2022/08/10 04:31:53;;;;;;;3.20;2.60;;;;;;;16.85;82.07;100040.88;108751;1279;22513;-67
2022/08/10 04:34:20;;;;;;;6.00;3.00;;;;;;;16.90;82.20;100047.33;109178;1277;22479;-68
2022/08/10 04:36:48;;;;;;;4.90;2.90;;;;;;;16.95;82.30;100049.88;108976;1277;139241;-68
2022/08/10 04:39:15;;;;;;;5.60;2.90;;;;;;;17.00;82.34;100051.56;108965;1277;22449;-68
2022/08/10 04:41:42;;;;;;;5.50;3.10;;;;;;;17.04;82.28;100054.10;108997;1277;138563;-68
2022/08/10 04:44:13;;;;;;;5.10;2.80;;;;;;;17.07;82.35;100049.01;108987;1279;22479;-68
2022/08/10 04:46:40;;;;;;;4.70;3.20;;;;;;;17.12;82.41;100051.56;109229;1277;22651;-69
2022/08/10 04:49:22;;;;;;;8.20;3.20;;;;;;;17.18;82.43;100049.84;109045;1277;138604;-68
2022/08/10 04:52:08;;;;;;;5.60;3.10;;;;;;;17.22;82.30;100043.54;109280;1277;22432;-69
2022/08/10 04:54:35;;;;;;;5.50;2.70;;;;;;;17.26;82.37;100045.11;109084;1277;138506;-68
2022/08/10 04:57:02;;;;;;;4.60;2.90;;;;;;;17.30;82.58;100045.34;109217;1277;22441;-68
2022/08/10 04:59:29;;;;;;;8.10;3.40;;;;;;;17.38;82.49;100043.07;109104;1277;140439;-68
2022/08/10 05:01:56;;;;;;;7.00;2.80;;;;;;;17.44;82.45;100044.71;109232;1277;22751;-69
2022/08/10 05:04:42;;;;;;;6.70;3.40;;;;;;;17.52;82.22;100050.59;109258;1276;22755;-69
2022/08/10 05:07:11;;;;;;;8.90;3.10;;;;;;;17.56;82.04;100054.73;109006;1277;139689;-69
2022/08/10 05:09:43;;;;;;;7.00;3.30;;;;;;;17.60;81.87;100051.99;109209;1277;22413;-69
2022/08/10 05:12:30;;;;;;;5.60;3.00;;;;;;;17.63;81.75;100046.79;109029;1279;138794;-69
2022/08/10 05:14:57;;;;;;;8.00;3.10;;;;;;;17.65;81.66;100043.59;109065;1278;22463;-69
2022/08/10 05:17:23;;;;;;;7.30;3.50;;;;;;;17.65;81.58;100037.52;109286;1277;23109;-70
2022/08/10 05:19:50;;;;;;;8.20;3.30;;;;;;;17.67;81.64;100039.77;108976;1277;138472;-69
2022/08/10 05:22:32;;;;;;;4.90;3.60;;;;;;;17.68;81.65;100040.91;109216;1277;22407;-70
2022/08/10 05:24:59;;;;;;;3.80;2.60;;;;;;;17.66;81.74;100041.31;109090;1277;138699;-66
2022/08/10 05:27:26;;;;;;;5.40;2.90;;;;;;;17.65;81.87;100037.69;109281;1276;22465;-66
2022/08/10 05:29:52;;;;;;;4.20;3.20;;;;;;;17.66;81.88;100037.46;108889;1277;138670;-65
2022/08/10 05:32:29;;;;;;;11.00;3.90;;;;;;;17.68;81.99;100037.05;109214;1277;22464;-66
2022/08/10 05:34:56;;;;;;;4.70;3.10;;;;;;;17.70;81.95;100038.14;109144;1277;22519;-66
2022/08/10 05:37:23;;;;;;;6.10;3.20;;;;;;;17.72;81.96;100045.40;109056;1277;138329;-65
2022/08/10 05:40:10;;;;;;;6.40;3.60;;;;;;;17.70;81.65;100042.77;108994;1277;22524;-66
2022/08/10 05:42:37;;;;;;;9.90;3.20;;;;;;;17.69;81.58;100050.11;109007;1277;140025;-66
2022/08/10 05:45:04;;;;;;;8.60;3.30;;;;;;;17.69;81.83;100059.92;108831;1279;22484;-66
2022/08/10 05:47:31;;;;;;;3.50;2.70;;;;;;;17.68;81.90;100071.52;108949;1277;140844;-64
2022/08/10 05:50:24;;;;;;;12.70;3.10;;;;;;;17.69;81.93;100076.46;109219;1277;22223;-66
2022/08/10 05:52:51;;;;;;;6.70;3.10;;;;;;;17.70;81.54;100071.33;109249;1277;22563;-66
2022/08/10 05:55:18;;;;;;;3.80;3.00;;;;;;;17.68;81.29;100073.38;108984;1277;139343;-67
2022/08/10 05:57:44;;;;;;;6.90;3.30;;;;;;;17.65;81.17;100072.85;109228;1277;22435;-65
2022/08/10 06:00:14;;;;;;;6.70;3.50;;;;;;;17.64;81.37;100068.84;109002;1277;139367;-65
2022/08/10 06:03:03;;;;;;;5.20;3.10;;;;;;;17.64;81.36;100062.98;108949;1280;22513;-65
2022/08/10 06:05:31;;;;;;;4.70;3.10;;;;;;;17.62;81.20;100055.60;108883;1279;139385;-65
2022/08/10 06:08:03;;;;;;;6.40;3.60;;;;;;;17.63;81.41;100054.23;109128;1277;23146;-66
2022/08/10 06:10:30;;;;;;;4.10;3.20;;;;;;;17.66;81.46;100053.83;109150;1277;23309;-66
2022/08/10 06:16:02;;;;;;;7.40;3.50;;;;;;;17.73;81.26;100054.48;109236;1277;23146;-66
2022/08/10 06:18:29;;;;;;;6.40;3.40;;;;;;;17.75;81.23;100055.87;108846;1280;139499;-66
2022/08/10 06:20:56;;;;;;;9.40;3.90;;;;;;;17.77;81.03;100050.45;109184;1277;22999;-66
2022/08/10 06:23:24;;;;;;;8.50;4.00;;;;;;;17.78;80.70;100052.76;109097;1277;22683;-66
2022/08/10 06:25:51;;;;;;;5.10;3.70;;;;;;;17.78;80.65;100051.10;109013;1277;139804;-59
2022/08/10 06:28:40;;;;;;;10.50;3.90;;;;;;;17.80;80.56;100050.91;108912;1277;23182;-59
2022/08/10 06:31:06;;;;;;;4.80;3.40;;;;;;;17.82;80.40;100050.02;108738;1280;139128;-59
2022/08/10 06:33:35;;;;;;;10.10;4.40;;;;;;;17.84;80.42;100049.55;109056;1277;22554;-58
2022/08/10 06:36:03;;;;;;;8.10;3.90;;;;;;;17.87;80.27;100055.55;108855;1277;138914;-60
2022/08/10 06:38:31;;;;;;;6.60;3.00;;;;;;;17.88;79.99;100053.44;108959;1277;22475;-60
2022/08/10 06:41:00;;;;;;;6.60;3.30;;;;;;;17.92;79.92;100054.04;108878;1277;22457;-60
2022/08/10 06:43:27;;;;;;;5.70;3.00;;;;;;;17.95;79.76;100050.75;108855;1277;139829;-60
2022/08/10 06:45:59;;;;;;;6.40;3.50;;;;;;;17.98;79.66;100053.41;109071;1277;23164;-59
2022/08/10 06:48:40;;;;;;;5.90;3.10;;;;;;;18.02;79.46;100053.23;108841;1277;140178;-59
2022/08/10 06:51:12;;;;;;;5.30;3.30;;;;;;;18.04;79.24;100054.29;108763;1280;22462;-59
2022/08/10 06:53:45;;;;;;;5.70;2.90;;;;;;;18.07;79.27;100053.36;108962;1277;139014;-59
2022/08/10 06:56:21;;;;;;;6.50;3.50;;;;;;;18.08;78.92;100051.59;108978;1280;22534;-59
2022/08/10 06:59:43;;;;;;;5.60;3.00;;;;;;;18.09;79.03;100053.67;108704;1280;22530;-59
2022/08/10 07:02:24;;;;;;;11.00;4.00;;;;;;;18.13;79.12;100054.73;108348;1284;23777;-60
2022/08/10 07:04:59;;;;;;;3.50;2.80;;;;;;;18.15;79.05;100053.61;108166;1286;23475;-59
2022/08/10 07:07:27;;;;;;;3.20;2.40;;;;;;;18.18;78.66;100050.80;108070;1285;139308;-67
2022/08/10 07:09:54;;;;;;;3.20;2.50;;;;;;;18.19;78.27;100045.38;108279;1284;22432;-67
2022/08/10 07:12:21;;;;;;;6.30;2.90;;;;;;;18.22;77.92;100048.09;108163;1283;138483;-67
2022/08/10 07:14:49;;;;;;;7.40;2.70;;;;;;;18.24;78.05;100046.86;108219;1285;22723;-67
2022/08/10 07:17:21;;;;;;;5.30;2.70;;;;;;;18.26;77.91;100050.09;108271;1284;23258;-67
2022/08/10 07:19:51;;;;;;;7.20;3.00;;;;;;;18.28;77.96;100054.42;108144;1284;138012;-66
2022/08/10 07:22:25;;;;;;;4.80;2.60;;;;;;;18.31;77.78;100054.17;108255;1284;22518;-67
2022/08/10 07:25:12;;;;;;;7.20;3.00;;;;;;;18.33;77.56;100053.85;108281;1284;140291;-67
2022/08/10 07:27:39;;;;;;;8.20;3.70;;;;;;;18.36;77.36;100058.51;108066;1286;22679;-67
2022/08/10 07:30:29;;;;;;;4.20;3.10;;;;;;;18.39;77.06;100058.08;107953;1286;139012;-67
2022/08/10 07:32:56;;;;;;;4.10;2.90;;;;;;;18.42;76.90;100055.40;108352;1286;22674;-67
2022/08/10 07:35:23;;;;;;;4.40;3.00;;;;;;;18.44;76.57;100052.30;108365;1286;22490;-59
2022/08/10 07:37:50;;;;;;;5.10;3.10;;;;;;;18.45;76.46;100048.23;108360;1280;141158;-59
2022/08/10 07:40:19;;;;;;;9.00;3.00;;;;;;;18.47;76.60;100052.02;108809;1280;22609;-60
2022/08/10 07:42:47;;;;;;;6.60;3.00;;;;;;;18.49;76.94;100048.45;108719;1280;139879;-59
2022/08/10 07:45:14;;;;;;;4.90;3.10;;;;;;;18.52;77.02;100055.04;108944;1280;23164;-59
2022/08/10 07:47:46;;;;;;;4.20;2.50;;;;;;;18.54;76.84;100059.42;108843;1279;138489;-59
2022/08/10 07:50:22;;;;;;;5.80;3.20;;;;;;;18.53;76.85;100066.28;108917;1279;23154;-59
2022/08/10 07:52:48;;;;;;;6.20;2.90;;;;;;;18.49;76.99;100064.77;108999;1279;23119;-59
2022/08/10 07:55:17;;;;;;;5.90;2.60;;;;;;;18.50;77.27;100062.34;108604;1277;138618;-59
2022/08/10 07:57:45;;;;;;;8.50;3.30;;;;;;;18.51;77.35;100057.74;108783;1280;22455;-60
2022/08/10 08:00:13;;;;;;;3.70;2.80;;;;;;;18.51;77.14;100053.77;108947;1277;139086;-59
2022/08/10 08:02:55;;;;;;;6.90;3.00;;;;;;;18.51;77.38;100052.28;109106;1277;22560;-59
2022/08/10 08:05:26;;;;;;;6.30;3.00;;;;;;;18.55;77.58;100053.34;109197;1277;22452;-67
2022/08/10 08:08:13;;;;;;;8.00;2.80;;;;;;;18.59;77.33;100057.19;109174;1277;22591;-67
2022/08/10 08:10:40;;;;;;;5.50;3.10;;;;;;;18.62;77.28;100060.66;109096;1277;23121;-67
2022/08/10 08:13:07;;;;;;;5.40;2.80;;;;;;;18.64;77.14;100060.11;108810;1279;140039;-66
2022/08/10 08:15:35;;;;;;;4.30;2.80;;;;;;;18.66;77.11;100059.17;108989;1277;22546;-66
2022/08/10 08:18:22;;;;;;;5.40;2.80;;;;;;;18.67;77.03;100058.05;109053;1274;138603;-66
2022/08/10 08:20:51;;;;;;;4.90;2.80;;;;;;;18.68;76.85;100062.79;109263;1274;22471;-66
2022/08/10 08:23:20;;;;;;;5.60;3.10;;;;;;;18.69;76.91;100058.02;109145;1277;23275;-66
2022/08/10 08:26:07;;;;;;;5.50;2.80;;;;;;;18.70;77.26;100051.38;109360;1274;22460;-66
2022/08/10 08:28:34;;;;;;;7.60;3.60;;;;;;;18.73;77.32;100051.36;109351;1274;22469;-66
2022/08/10 08:31:01;;;;;;;5.60;3.00;;;;;;;18.75;77.30;100050.54;109062;1274;138831;-66
2022/08/10 08:33:28;;;;;;;6.50;3.20;;;;;;;18.77;77.22;100055.69;109297;1274;22662;-66
2022/08/10 08:36:08;;;;;;;6.50;2.60;;;;;;;18.76;77.48;100058.30;109076;1274;138618;-66
2022/08/10 08:38:36;;;;;;;7.40;2.80;;;;;;;18.78;77.39;100055.66;109256;1274;23289;-66
2022/08/10 08:41:27;;;;;;;7.00;2.80;;;;;;;18.81;77.45;100053.92;109274;1274;22453;-66
2022/08/10 08:44:04;;;;;;;8.50;3.10;;;;;;;18.86;77.18;100047.56;108911;1276;138722;-66
2022/08/10 08:46:49;;;;;;;4.90;2.70;;;;;;;18.88;76.72;100041.35;109092;1277;22583;-66
2022/08/10 08:49:43;;;;;;;4.90;3.40;;;;;;;18.90;76.45;100038.25;109106;1274;139170;-66
2022/08/10 08:52:37;;;;;;;8.40;3.50;;;;;;;18.94;76.40;100049.29;109415;1274;23327;-66
2022/08/10 08:55:43;;;;;;;7.50;2.80;;;;;;;18.99;75.93;100056.52;109276;1275;140199;-66
2022/08/10 08:58:36;;;;;;;3.50;2.70;;;;;;;19.04;75.57;100059.59;109314;1275;22466;-66
2022/08/10 09:01:30;;;;;;;7.40;3.30;;;;;;;19.08;75.55;100064.53;109359;1274;140063;-66
2022/08/10 09:04:22;;;;;;;4.50;3.00;;;;;;;19.13;75.14;100068.33;109336;1274;22643;-66
2022/08/10 09:07:11;;;;;;;3.20;2.80;;;;;;;19.16;74.79;100070.17;109289;1274;139867;-66
2022/08/10 09:10:25;;;;;;;7.70;2.80;;;;;;;19.19;74.65;100062.35;109388;1274;22402;-66
2022/08/10 09:13:28;;;;;;;5.20;3.70;;;;;;;19.24;74.74;100056.60;109083;1276;138717;-65
2022/08/10 09:16:04;;;;;;;4.30;3.30;;;;;;;19.30;74.79;100057.99;107999;1274;22558;-60
2022/08/10 09:18:46;;;;;;;6.00;3.50;;;;;;;19.37;74.44;100048.45;104799;1278;138817;-59
2022/08/10 09:21:36;;;;;;;4.50;3.50;;;;;;;19.46;74.28;100044.77;105047;1277;22596;-57
2022/08/10 09:24:31;;;;;;;5.20;3.60;;;;;;;19.54;73.69;100047.86;109193;1274;140929;-58
2022/08/10 09:27:00;;;;;;;3.90;3.50;;;;;;;19.60;73.78;100052.34;109237;1277;23154;-58
2022/08/10 09:29:29;;;;;;;5.30;3.20;;;;;;;19.68;73.86;100047.21;109264;1274;23437;-57
2022/08/10 09:32:07;;;;;;;4.40;3.30;;;;;;;19.75;73.80;100048.80;109175;1274;140264;-57
2022/08/10 09:35:10;;;;;;;4.10;3.60;;;;;;;19.82;73.24;100050.26;109394;1274;22458;-58
2022/08/10 09:38:19;;;;;;;9.00;3.90;;;;;;;19.89;72.93;100049.14;109360;1274;22520;-58
2022/08/10 09:40:52;;;;;;;6.80;3.50;;;;;;;19.91;72.54;100043.77;109314;1274;22436;-58
2022/08/10 09:43:58;;;;;;;4.60;3.60;;;;;;;19.94;72.34;100048.02;109159;1274;138471;-58
2022/08/10 09:47:01;;;;;;;6.00;3.50;;;;;;;19.99;72.03;100047.38;109255;1274;22517;-64
2022/08/10 09:49:31;;;;;;;5.80;3.60;;;;;;;20.03;71.37;100042.33;109174;1274;139319;-64
2022/08/10 09:52:27;;;;;;;4.20;3.80;;;;;;;20.06;71.38;100041.91;109385;1274;22429;-65
2022/08/10 09:55:23;;;;;;;7.80;3.70;;;;;;;20.09;71.25;100039.80;109182;1274;138865;-65
2022/08/10 09:58:28;;;;;;;4.70;3.90;;;;;;;20.12;70.88;100033.83;108110;1276;1531974;-64
2022/08/10 10:03:10;;;;;;;6.40;3.80;;;;;;;20.19;70.83;100034.30;102120;1307;545146;-65
2022/08/10 10:05:57;;;;;;;7.40;4.60;;;;;;;20.20;70.65;100027.53;103846;1287;137819;-65
2022/08/10 10:08:47;;;;;;;7.30;4.20;;;;;;;20.22;70.81;100023.86;103798;1289;22627;-66
2022/08/10 10:11:38;;;;;;;6.20;4.30;;;;;;;20.23;70.69;100024.56;108146;1286;23656;-66
2022/08/10 10:14:14;;;;;;;6.40;3.70;;;;;;;20.24;70.71;100026.82;108106;1287;22447;-66
2022/08/10 10:16:46;;;;;;;6.50;3.60;;;;;;;20.25;70.70;100029.00;106100;1286;2845236;-66
2022/08/10 10:19:45;;;;;;;5.50;4.00;;;;;;;20.25;71.12;100032.27;108161;1286;138637;-67
2022/08/10 10:22:15;;;;;;;5.80;3.90;;;;;;;20.28;71.13;100027.02;108238;1286;23635;-67
2022/08/10 10:24:46;;;;;;;5.70;3.80;;;;;;;20.30;71.17;100022.39;108195;1286;137872;-67
2022/08/10 10:27:26;;;;;;;4.20;3.70;;;;;;;20.33;71.10;100015.52;108246;1285;22454;-67
2022/08/10 10:30:13;;;;;;;4.70;3.70;;;;;;;20.36;71.29;100015.45;108249;1286;138245;-66
2022/08/10 10:33:00;;;;;;;4.40;4.00;;;;;;;20.39;71.36;100016.77;108380;1286;22479;-67
2022/08/10 10:35:40;;;;;;;7.40;4.20;;;;;;;20.44;71.67;100017.55;108256;1286;22482;-67
2022/08/10 10:38:08;;;;;;;4.30;3.90;;;;;;;20.50;71.54;100013.89;108230;1285;22411;-67
2022/08/10 10:41:16;;;;;;;5.10;4.10;;;;;;;20.53;71.42;100010.42;108103;1286;22256;-67
2022/08/10 10:44:20;;;;;;;4.40;3.80;;;;;;;20.58;71.43;100003.51;108142;1286;139676;-67
2022/08/10 10:47:01;;;;;;;5.00;3.50;;;;;;;20.63;71.57;100002.89;108175;1285;22520;-47
2022/08/10 10:49:54;;;;;;;5.20;4.10;;;;;;;20.67;71.40;99999.73;108075;1286;138296;-47
2022/08/10 10:52:54;;;;;;;4.50;3.70;;;;;;;20.73;71.15;99998.06;107990;1286;22451;-47
2022/08/10 10:55:29;;;;;;;5.90;3.50;;;;;;;20.75;71.17;100002.65;107988;1286;139912;-48
2022/08/10 10:58:16;;;;;;;6.90;4.30;;;;;;;20.77;70.93;100004.66;107989;1286;23218;-48
2022/08/10 11:01:29;;;;;;;4.40;4.00;;;;;;;20.78;70.84;100006.01;108060;1286;138953;-47
2022/08/10 11:04:21;;;;;;;3.80;3.40;;;;;;;20.77;70.40;100009.63;108151;1286;22483;-47
2022/08/10 11:07:00;;;;;;;3.60;3.10;;;;;;;20.76;70.21;100007.96;108335;1283;138172;-47
2022/08/10 11:09:38;;;;;;;4.50;3.30;;;;;;;20.73;70.07;100000.21;108506;1283;22479;-47
2022/08/10 11:12:32;;;;;;;5.30;3.70;;;;;;;20.72;70.26;99993.70;108256;1282;137642;-47
2022/08/10 11:15:19;;;;;;;5.00;3.60;;;;;;;20.72;70.35;99991.64;108446;1283;22442;-47
2022/08/10 11:17:49;;;;;;;5.60;3.70;;;;;;;20.73;70.84;99991.52;108245;1283;138892;-54
2022/08/10 11:20:23;;;;;;;6.20;4.20;;;;;;;20.75;71.13;99998.34;108337;1283;22524;-54
2022/08/10 11:23:11;;;;;;;6.30;4.50;;;;;;;20.75;71.30;100001.15;108462;1283;22599;-54
2022/08/10 11:25:41;;;;;;;5.10;4.00;;;;;;;20.75;71.18;99999.12;108199;1283;139079;-54
2022/08/10 11:28:34;;;;;;;5.20;3.50;;;;;;;20.75;71.37;100000.39;108243;1283;22477;-52
2022/08/10 11:31:02;;;;;;;5.50;4.00;;;;;;;20.76;71.71;99997.77;108380;1283;138581;-52
2022/08/10 11:33:52;;;;;;;6.50;3.30;;;;;;;20.78;71.47;99997.93;108465;1283;22455;-54
2022/08/10 11:36:43;;;;;;;6.00;3.30;;;;;;;20.78;70.96;99990.20;108313;1283;137901;-52
2022/08/10 11:39:17;;;;;;;3.90;3.50;;;;;;;20.80;70.89;99987.02;108089;1286;23224;-53
2022/08/10 11:41:44;;;;;;;4.70;3.70;;;;;;;20.81;70.88;99987.92;108405;1283;138174;-53
2022/08/10 11:44:33;;;;;;;4.20;3.40;;;;;;;20.84;70.92;99989.63;108488;1283;22508;-53
2022/08/10 11:47:04;;;;;;;7.80;3.80;;;;;;;20.87;70.55;99987.09;108246;1283;22500;-53
2022/08/10 11:49:33;;;;;;;10.10;3.60;;;;;;;20.90;70.23;99985.13;108255;1282;138260;-53
2022/08/10 11:52:14;;;;;;;4.90;3.60;;;;;;;20.92;70.20;99984.98;108300;1284;23483;-53
2022/08/10 11:54:45;;;;;;;4.60;2.80;;;;;;;20.95;70.11;99983.23;108198;1283;138258;-53
2022/08/10 11:57:16;;;;;;;7.90;3.10;;;;;;;20.96;69.81;99982.74;108482;1283;23171;-53
2022/08/10 11:59:58;;;;;;;6.50;3.10;;;;;;;20.97;69.50;99985.04;108259;1283;139017;-53